createdAt,value
2022-07-28T00:00:37.398Z,101472.00
2022-07-28T00:03:22.836Z,101473.75
2022-07-28T00:06:08.064Z,101472.84
2022-07-28T00:08:55.278Z,101482.44
2022-07-28T00:11:50.429Z,101477.22
2022-07-28T00:14:40.592Z,101475.41
2022-07-28T00:17:26.043Z,101476.28
2022-07-28T00:20:12.092Z,101477.13
2022-07-28T00:22:57.859Z,101479.75
2022-07-28T00:25:43.506Z,101476.28
2022-07-28T00:28:28.733Z,101483.25
2022-07-28T00:31:14.047Z,101483.22
2022-07-28T00:33:59.908Z,101476.25
2022-07-28T00:36:45.420Z,101472.75
2022-07-28T00:39:30.785Z,101469.25
2022-07-28T00:42:20.568Z,101471.88
2022-07-28T00:45:06.815Z,101471.84
2022-07-28T00:47:52.185Z,101463.13
2022-07-28T00:50:40.409Z,101463.97
2022-07-28T00:53:27.070Z,101468.34
2022-07-28T00:56:14.263Z,101459.63
2022-07-28T00:59:00.212Z,101468.31
2022-07-28T01:01:46.271Z,101459.63
2022-07-28T01:04:32.397Z,101456.09
2022-07-28T01:07:41.532Z,101458.72
2022-07-28T01:10:46.883Z,101456.09
2022-07-28T01:13:46.084Z,101453.50
2022-07-28T01:16:31.713Z,101451.78
2022-07-28T01:19:32.216Z,101449.13
2022-07-28T01:22:23.023Z,101443.88
2022-07-28T01:25:31.433Z,101439.53
2022-07-28T01:28:22.836Z,101438.63
2022-07-28T01:31:12.810Z,101448.22
2022-07-28T01:34:13.663Z,101440.38
2022-07-28T01:37:07.388Z,101431.63
2022-07-28T01:39:57.545Z,101433.41
2022-07-28T01:42:48.077Z,101436.00
2022-07-28T01:45:34.713Z,101436.00
2022-07-28T01:48:21.382Z,101429.00
2022-07-28T01:51:08.905Z,101438.59
2022-07-28T01:53:58.659Z,101436.03
2022-07-28T01:56:45.208Z,101431.72
2022-07-28T01:59:32.276Z,101426.50
2022-07-28T02:02:20.697Z,101435.19
2022-07-28T02:05:07.978Z,101419.50
2022-07-28T02:07:55.816Z,101423.00
2022-07-28T02:10:43.237Z,101428.19
2022-07-28T02:13:28.767Z,101416.00
2022-07-28T02:16:17.173Z,101413.34
2022-07-28T02:19:03.747Z,101413.34
2022-07-28T02:21:51.903Z,101407.28
2022-07-28T02:24:38.468Z,101408.13
2022-07-28T02:27:48.294Z,101406.41
2022-07-28T02:30:49.272Z,101402.03
2022-07-28T02:33:59.351Z,101401.13
2022-07-28T02:36:50.018Z,101394.13
2022-07-28T02:39:58.276Z,101392.34
2022-07-28T02:42:49.192Z,101394.94
2022-07-28T02:45:38.597Z,101385.34
2022-07-28T02:48:28.133Z,101386.25
2022-07-28T02:51:14.696Z,101390.63
2022-07-28T02:54:01.543Z,101385.41
2022-07-28T02:56:53.129Z,101389.81
2022-07-28T02:59:40.686Z,101387.19
2022-07-28T03:02:30.825Z,101388.94
2022-07-28T03:05:17.360Z,101385.44
2022-07-28T03:08:02.956Z,101389.81
2022-07-28T03:10:48.613Z,101385.44
2022-07-28T03:13:34.246Z,101379.34
2022-07-28T03:16:19.588Z,101382.81
2022-07-28T03:19:05.224Z,101380.19
2022-07-28T03:21:53.067Z,101367.09
2022-07-28T03:24:52.482Z,101371.41
2022-07-28T03:27:41.862Z,101365.31
2022-07-28T03:30:32.789Z,101376.63
2022-07-28T03:33:18.863Z,101362.66
2022-07-28T03:36:09.449Z,101370.50
2022-07-28T03:39:02.141Z,101372.25
2022-07-28T03:41:48.431Z,101374.00
2022-07-28T03:44:34.900Z,101371.38
2022-07-28T03:47:24.298Z,101365.25
2022-07-28T03:50:09.709Z,101367.88
2022-07-28T03:52:56.201Z,101370.56
2022-07-28T03:55:42.078Z,101366.19
2022-07-28T03:58:28.603Z,101367.94
2022-07-28T04:01:14.959Z,101374.03
2022-07-28T04:04:00.674Z,101362.72
2022-07-28T04:06:46.225Z,101367.13
2022-07-28T04:09:31.711Z,101366.28
2022-07-28T04:12:17.038Z,101363.66
2022-07-28T04:15:02.387Z,101363.66
2022-07-28T04:17:51.486Z,101363.69
2022-07-28T04:20:37.051Z,101362.81
2022-07-28T04:23:22.599Z,101361.06
2022-07-28T04:26:08.258Z,101361.97
2022-07-28T04:28:53.635Z,101367.25
2022-07-28T04:31:39.033Z,101367.25
2022-07-28T04:34:24.425Z,101364.66
2022-07-28T04:37:09.758Z,101367.34
2022-07-28T04:39:55.059Z,101362.97
2022-07-28T04:42:42.171Z,101365.63
2022-07-28T04:45:28.118Z,101359.50
2022-07-28T04:48:14.380Z,101356.00
2022-07-28T04:51:02.606Z,101356.91
2022-07-28T04:53:48.128Z,101361.25
2022-07-28T04:56:34.009Z,101356.91
2022-07-28T04:59:19.611Z,101351.63
2022-07-28T05:02:06.741Z,101349.03
2022-07-28T05:04:53.585Z,101345.53
2022-07-28T05:07:41.322Z,101347.28
2022-07-28T05:10:27.409Z,101342.94
2022-07-28T05:13:13.437Z,101348.19
2022-07-28T05:15:58.770Z,101344.66
2022-07-28T05:18:44.131Z,101348.16
2022-07-28T05:21:29.574Z,101349.03
2022-07-28T05:24:15.543Z,101354.25
2022-07-28T05:27:01.001Z,101357.75
2022-07-28T05:29:47.427Z,101356.91
2022-07-28T05:32:33.361Z,101356.88
2022-07-28T05:35:18.752Z,101355.16
2022-07-28T05:38:07.606Z,101356.88
2022-07-28T05:40:56.665Z,101352.53
2022-07-28T05:43:42.256Z,101358.59
2022-07-28T05:46:28.990Z,101357.72
2022-07-28T05:49:14.530Z,101361.22
2022-07-28T05:52:00.021Z,101357.72
2022-07-28T05:54:45.431Z,101357.72
2022-07-28T05:57:30.716Z,101357.69
2022-07-28T06:00:19.204Z,101365.53
2022-07-28T06:03:06.070Z,101356.81
2022-07-28T06:05:59.412Z,101358.53
2022-07-28T06:09:00.998Z,101352.41
2022-07-28T06:11:46.445Z,101355.00
2022-07-28T06:14:31.894Z,101361.13
2022-07-28T06:17:17.190Z,101361.09
2022-07-28T06:20:03.530Z,101361.06
2022-07-28T06:22:51.674Z,101362.81
2022-07-28T06:25:37.324Z,101357.56
2022-07-28T06:28:23.092Z,101364.53
2022-07-28T06:31:08.403Z,101361.03
2022-07-28T06:33:54.265Z,101361.88
2022-07-28T06:36:39.733Z,101364.50
2022-07-28T06:39:25.021Z,101361.84
2022-07-28T06:42:11.455Z,101362.69
2022-07-28T06:44:59.229Z,101367.03
2022-07-28T06:47:45.820Z,101362.63
2022-07-28T06:50:33.057Z,101362.59
2022-07-28T06:53:18.610Z,101362.56
2022-07-28T06:56:05.469Z,101366.00
2022-07-28T06:58:51.888Z,101365.06
2022-07-28T07:01:37.488Z,101364.16
2022-07-28T07:04:23.030Z,101361.50
2022-07-28T07:07:11.933Z,101370.19
2022-07-28T07:10:04.785Z,101358.81
2022-07-28T07:12:50.296Z,101357.91
2022-07-28T07:15:35.555Z,101353.50
2022-07-28T07:18:21.293Z,101359.56
2022-07-28T07:21:07.049Z,101365.59
2022-07-28T07:23:52.702Z,101358.56
2022-07-28T07:26:38.570Z,101360.25
2022-07-28T07:29:24.483Z,101359.28
2022-07-28T07:32:11.146Z,101359.22
2022-07-28T07:34:56.781Z,101361.88
2022-07-28T07:37:42.291Z,101362.72
2022-07-28T07:40:27.907Z,101359.16
2022-07-28T07:43:13.298Z,101360.88
2022-07-28T07:45:58.667Z,101363.53
2022-07-28T07:48:44.851Z,101359.06
2022-07-28T07:51:30.395Z,101358.03
2022-07-28T07:54:16.103Z,101352.69
2022-07-28T07:57:01.998Z,101356.16
2022-07-28T07:59:47.507Z,101356.16
2022-07-28T08:02:32.803Z,101367.50
2022-07-28T08:05:18.333Z,101363.81
2022-07-28T08:08:07.277Z,101376.78
2022-07-28T08:10:54.076Z,101366.06
2022-07-28T08:13:39.999Z,101366.78
2022-07-28T08:16:26.636Z,101363.91
2022-07-28T08:19:12.161Z,101365.69
2022-07-28T08:21:58.168Z,101362.88
2022-07-28T08:24:43.566Z,101364.50
2022-07-28T08:27:28.887Z,101367.28
2022-07-28T08:30:16.903Z,101369.81
2022-07-28T08:33:07.652Z,101367.09
2022-07-28T08:35:52.830Z,101367.72
2022-07-28T08:38:38.304Z,101370.91
2022-07-28T08:41:33.623Z,101370.63
2022-07-28T08:44:25.211Z,101364.50
2022-07-28T08:47:12.259Z,101363.34
2022-07-28T08:49:59.823Z,101364.06
2022-07-28T08:52:46.093Z,101365.78
2022-07-28T08:55:32.487Z,101363.94
2022-07-28T08:58:18.381Z,101359.50
2022-07-28T09:01:05.397Z,101361.31
2022-07-28T09:03:52.183Z,101356.56
2022-07-28T09:06:42.297Z,101353.66
2022-07-28T09:09:28.127Z,101356.97
2022-07-28T09:12:13.409Z,101355.13
2022-07-28T09:14:58.825Z,101355.88
2022-07-28T09:17:44.246Z,101350.94
2022-07-28T09:20:30.520Z,101345.13
2022-07-28T09:23:41.985Z,101344.25
2022-07-28T09:26:21.857Z,101347.75
2022-07-28T09:29:08.627Z,101339.81
2022-07-28T09:31:57.270Z,101337.00
2022-07-28T09:34:45.343Z,101334.25
2022-07-28T09:37:31.846Z,101336.91
2022-07-28T09:40:18.272Z,101329.94
2022-07-28T09:43:03.872Z,101339.38
2022-07-28T09:46:03.889Z,101330.69
2022-07-28T09:48:49.658Z,101331.13
2022-07-28T09:51:35.907Z,101330.41
2022-07-28T09:54:21.478Z,101325.25
2022-07-28T09:57:11.857Z,101329.97
2022-07-28T09:59:57.970Z,101325.91
2022-07-28T10:02:50.324Z,101326.47
2022-07-28T10:05:40.926Z,101330.09
2022-07-28T10:08:48.110Z,101332.94
2022-07-28T10:11:37.854Z,101332.78
2022-07-28T10:14:33.010Z,101326.31
2022-07-28T10:17:33.433Z,101330.09
2022-07-28T10:20:18.881Z,101327.88
2022-07-28T10:23:06.653Z,101329.72
2022-07-28T10:25:54.400Z,101329.34
2022-07-28T10:28:46.996Z,101329.47
2022-07-28T10:31:45.350Z,101336.28
2022-07-28T10:34:40.177Z,101330.81
2022-07-28T10:37:28.169Z,101326.03
2022-07-28T10:40:16.548Z,101338.56
2022-07-28T10:43:03.288Z,101334.97
2022-07-28T10:46:06.768Z,101333.81
2022-07-28T10:48:53.939Z,101341.25
2022-07-28T10:52:02.456Z,101340.28
2022-07-28T10:55:31.623Z,101342.16
2022-07-28T10:58:31.290Z,101339.41
2022-07-28T11:01:52.872Z,101338.41
2022-07-28T11:05:02.060Z,101343.13
2022-07-28T11:07:47.887Z,101348.94
2022-07-28T11:10:48.682Z,101345.53
2022-07-28T11:13:40.781Z,101341.66
2022-07-28T11:16:27.051Z,101344.66
2022-07-28T11:19:40.716Z,101350.00
2022-07-28T11:22:32.826Z,101343.31
2022-07-28T11:25:22.129Z,101344.78
2022-07-28T11:28:08.314Z,101335.97
2022-07-28T11:30:54.886Z,101339.63
2022-07-28T11:34:20.684Z,101330.53
2022-07-28T11:37:06.962Z,101331.88
2022-07-28T11:39:52.713Z,101323.78
2022-07-28T11:42:38.793Z,101326.09
2022-07-28T11:45:30.731Z,101322.16
2022-07-28T11:48:25.334Z,101319.59
2022-07-28T11:51:12.039Z,101319.97
2022-07-28T11:53:58.100Z,101319.78
2022-07-28T11:56:44.387Z,101312.41
2022-07-28T11:59:42.002Z,101320.00
2022-07-28T12:02:29.085Z,101322.63
2022-07-28T12:05:18.019Z,101325.31
2022-07-28T12:08:03.588Z,101326.72
2022-07-28T12:10:56.568Z,101323.91
2022-07-28T12:13:42.699Z,101324.75
2022-07-28T12:16:29.346Z,101332.56
2022-07-28T12:19:16.724Z,101327.59
2022-07-28T12:22:14.939Z,101327.19
2022-07-28T12:25:01.205Z,101324.31
2022-07-28T12:27:46.957Z,101330.09
2022-07-28T12:30:33.581Z,101321.31
2022-07-28T12:33:29.025Z,101324.00
2022-07-28T12:36:18.949Z,101330.38
2022-07-28T12:39:12.427Z,101328.72
2022-07-28T12:42:04.741Z,101331.31
2022-07-28T12:44:54.227Z,101323.00
2022-07-28T12:47:40.230Z,101314.59
2022-07-28T12:50:27.272Z,101316.94
2022-07-28T12:53:13.631Z,101313.81
2022-07-28T12:56:02.606Z,101311.06
2022-07-28T12:58:48.730Z,101314.22
2022-07-28T13:02:04.169Z,101316.78
2022-07-28T13:04:50.496Z,101314.56
2022-07-28T13:07:36.764Z,101311.09
2022-07-28T13:10:22.509Z,101307.06
2022-07-28T13:13:08.076Z,101309.00
2022-07-28T13:16:15.613Z,101314.97
2022-07-28T13:19:04.601Z,101314.50
2022-07-28T13:21:57.009Z,101315.88
2022-07-28T13:24:45.332Z,101315.03
2022-07-28T13:27:32.800Z,101313.34
2022-07-28T13:30:18.388Z,101312.88
2022-07-28T13:33:04.031Z,101311.41
2022-07-28T13:35:50.525Z,101308.50
2022-07-28T13:38:36.343Z,101313.38
2022-07-28T13:41:21.750Z,101314.59
2022-07-28T13:44:07.153Z,101321.84
2022-07-28T13:46:56.588Z,101315.91
2022-07-28T13:49:42.471Z,101313.59
2022-07-28T13:52:33.207Z,101316.47
2022-07-28T13:55:22.988Z,101312.59
2022-07-28T13:58:09.038Z,101321.31
2022-07-28T14:00:55.150Z,101315.88
2022-07-28T14:03:53.564Z,101320.34
2022-07-28T14:06:45.143Z,101316.09
2022-07-28T14:09:30.783Z,101318.28
2022-07-28T14:12:16.051Z,101323.94
2022-07-28T14:15:01.710Z,101331.47
2022-07-28T14:17:46.908Z,101331.31
2022-07-28T14:20:32.806Z,101330.13
2022-07-28T14:23:18.377Z,101325.78
2022-07-28T14:26:33.200Z,101325.56
2022-07-28T14:29:11.508Z,101325.88
2022-07-28T14:31:59.476Z,101331.06
2022-07-28T14:34:45.023Z,101325.66
2022-07-28T14:37:47.081Z,101329.19
2022-07-28T14:40:39.203Z,101333.69
2022-07-28T14:43:25.798Z,101327.81
2022-07-28T14:46:16.243Z,101325.09
2022-07-28T14:49:06.216Z,101326.63
2022-07-28T14:51:51.856Z,101331.13
2022-07-28T14:54:37.335Z,101332.09
2022-07-28T14:57:24.993Z,101331.38
2022-07-28T15:00:31.080Z,101328.63
2022-07-28T15:03:17.190Z,101331.34
2022-07-28T15:06:03.589Z,101321.91
2022-07-28T15:08:48.848Z,101321.91
2022-07-28T15:11:34.258Z,101325.16
2022-07-28T15:14:21.340Z,101322.25
2022-07-28T15:17:07.458Z,101322.78
2022-07-28T15:19:53.044Z,101324.41
2022-07-28T15:22:38.389Z,101322.50
2022-07-28T15:25:23.847Z,101320.63
2022-07-28T15:28:10.517Z,101318.75
2022-07-28T15:31:03.712Z,101311.69
2022-07-28T15:33:57.445Z,101315.28
2022-07-28T15:36:43.817Z,101316.81
2022-07-28T15:39:30.873Z,101313.16
2022-07-28T15:42:17.677Z,101313.44
2022-07-28T15:45:03.065Z,101311.81
2022-07-28T15:47:48.280Z,101311.16
2022-07-28T15:50:33.627Z,101306.72
2022-07-28T15:53:19.301Z,101321.69
2022-07-28T15:56:05.415Z,101324.34
2022-07-28T15:58:51.191Z,101324.28
2022-07-28T16:01:37.445Z,101326.00
2022-07-28T16:04:25.393Z,101322.00
2022-07-28T16:07:19.711Z,101319.06
2022-07-28T16:10:08.902Z,101323.75
2022-07-28T16:12:56.090Z,101321.75
2022-07-28T16:15:41.745Z,101325.03
2022-07-28T16:18:27.578Z,101333.56
2022-07-28T16:21:13.166Z,101332.88
2022-07-28T16:23:58.448Z,101336.31
2022-07-28T16:26:43.792Z,101329.88
2022-07-28T16:29:29.199Z,101334.34
2022-07-28T16:32:17.284Z,101338.63
2022-07-28T16:35:03.371Z,101343.09
2022-07-28T16:37:48.685Z,101338.63
2022-07-28T16:40:34.116Z,101337.94
2022-07-28T16:43:19.443Z,101342.59
2022-07-28T16:46:04.897Z,101330.28
2022-07-28T16:48:50.761Z,101335.88
2022-07-28T16:51:36.096Z,101329.72
2022-07-28T16:54:21.853Z,101332.53
2022-07-28T16:57:07.453Z,101331.69
2022-07-28T16:59:53.379Z,101337.44
2022-07-28T17:02:38.934Z,101334.09
2022-07-28T17:05:24.938Z,101342.94
2022-07-28T17:08:11.287Z,101342.09
2022-07-28T17:10:56.931Z,101336.97
2022-07-28T17:13:45.384Z,101329.00
2022-07-28T17:16:31.460Z,101330.03
2022-07-28T17:19:21.532Z,101328.31
2022-07-28T17:22:07.518Z,101328.28
2022-07-28T17:24:53.155Z,101329.34
2022-07-28T17:27:42.219Z,101318.84
2022-07-28T17:30:32.933Z,101330.34
2022-07-28T17:33:21.476Z,101337.66
2022-07-28T17:36:07.217Z,101335.19
2022-07-28T17:38:52.662Z,101338.03
2022-07-28T17:41:39.114Z,101338.13
2022-07-28T17:44:24.931Z,101337.28
2022-07-28T17:47:10.319Z,101329.34
2022-07-28T17:49:55.628Z,101336.59
2022-07-28T17:52:42.041Z,101336.78
2022-07-28T17:55:40.722Z,101335.94
2022-07-28T17:58:41.606Z,101337.78
2022-07-28T18:01:27.034Z,101342.22
2022-07-28T18:04:13.064Z,101345.16
2022-07-28T18:06:59.334Z,101349.09
2022-07-28T18:09:44.688Z,101344.03
2022-07-28T18:12:30.128Z,101347.69
2022-07-28T18:15:15.485Z,101342.28
2022-07-28T18:18:02.223Z,101346.28
2022-07-28T18:20:48.147Z,101342.16
2022-07-28T18:23:33.758Z,101343.13
2022-07-28T18:26:19.817Z,101351.22
2022-07-28T18:29:05.406Z,101347.03
2022-07-28T18:31:51.711Z,101348.25
2022-07-28T18:34:39.245Z,101351.59
2022-07-28T18:37:25.139Z,101346.06
2022-07-28T18:40:12.316Z,101348.56
2022-07-28T18:42:59.217Z,101346.56
2022-07-28T18:45:44.804Z,101352.44
2022-07-28T18:48:30.280Z,101360.75
2022-07-28T18:51:15.632Z,101358.47
2022-07-28T18:54:01.320Z,101357.88
2022-07-28T18:56:47.039Z,101357.34
2022-07-28T18:59:32.855Z,101373.50
2022-07-28T19:02:18.727Z,101375.44
2022-07-28T19:05:09.150Z,101372.16
2022-07-28T19:07:54.521Z,101379.53
2022-07-28T19:10:39.994Z,101377.19
2022-07-28T19:13:25.628Z,101376.56
2022-07-28T19:16:11.044Z,101372.38
2022-07-28T19:18:56.439Z,101372.69
2022-07-28T19:21:43.386Z,101375.66
2022-07-28T19:24:29.333Z,101378.50
2022-07-28T19:27:14.809Z,101373.44
2022-07-28T19:30:00.316Z,101382.38
2022-07-28T19:32:45.875Z,101373.75
2022-07-28T19:35:31.462Z,101380.03
2022-07-28T19:38:16.815Z,101387.25
2022-07-28T19:41:02.426Z,101376.91
2022-07-28T19:43:47.826Z,101383.13
2022-07-28T19:46:33.401Z,101388.53
2022-07-28T19:49:19.161Z,101392.13
2022-07-28T19:52:06.083Z,101386.97
2022-07-28T19:54:51.949Z,101381.78
2022-07-28T19:57:37.822Z,101389.78
2022-07-28T20:00:23.368Z,101392.59
2022-07-28T20:04:00.037Z,101396.19
2022-07-28T20:06:15.279Z,101398.91
2022-07-28T20:09:02.112Z,101409.53
2022-07-28T20:11:49.199Z,101412.25
2022-07-28T20:14:34.715Z,101410.59
2022-07-28T20:17:37.391Z,101413.31
2022-07-28T20:20:24.193Z,101420.44
2022-07-28T20:23:09.669Z,101423.16
2022-07-28T20:25:55.119Z,101424.09
2022-07-28T20:28:40.819Z,101423.28
2022-07-28T20:31:26.195Z,101430.38
2022-07-28T20:34:13.193Z,101443.56
2022-07-28T20:36:58.756Z,101447.19
2022-07-28T20:39:45.481Z,101437.63
2022-07-28T20:42:31.715Z,101440.31
2022-07-28T20:45:17.402Z,101450.03
2022-07-28T20:48:02.753Z,101452.69
2022-07-28T20:50:48.297Z,101455.38
2022-07-28T20:53:34.020Z,101463.38
2022-07-28T20:56:19.683Z,101474.84
2022-07-28T20:59:07.032Z,101477.50
2022-07-28T21:01:52.842Z,101477.59
2022-07-28T21:04:38.313Z,101475.00
2022-07-28T21:08:04.778Z,101490.78
2022-07-28T21:10:30.453Z,101490.88
2022-07-28T21:13:15.833Z,101494.41
2022-07-28T21:16:01.226Z,101497.06
2022-07-28T21:18:47.119Z,101495.38
2022-07-28T21:21:32.506Z,101500.69
2022-07-28T21:24:18.577Z,101494.59
2022-07-28T21:27:04.233Z,101501.63
2022-07-28T21:32:35.982Z,101499.06
2022-07-28T21:35:21.464Z,101499.09
2022-07-28T21:38:07.091Z,101497.41
2022-07-28T21:40:52.675Z,101490.44
2022-07-28T21:43:38.366Z,101484.28
2022-07-28T21:46:25.725Z,101490.38
2022-07-28T21:49:11.921Z,101492.19
2022-07-28T21:51:57.449Z,101486.94
2022-07-28T21:54:42.821Z,101494.78
2022-07-28T21:57:28.261Z,101483.44
2022-07-28T22:00:13.951Z,101478.22
2022-07-28T22:03:00.264Z,101484.28
2022-07-28T22:05:46.353Z,101482.53
2022-07-28T22:08:33.336Z,101487.75
2022-07-28T22:11:18.863Z,101494.75
2022-07-28T22:14:04.210Z,101484.28
2022-07-28T22:16:49.462Z,101493.84
2022-07-28T22:19:35.246Z,101489.47
2022-07-28T22:22:20.594Z,101492.06
2022-07-28T22:25:07.015Z,101495.56
2022-07-28T22:27:52.507Z,101499.09
2022-07-28T22:30:38.170Z,101501.72
2022-07-28T22:33:23.435Z,101498.16
2022-07-28T22:36:09.247Z,101493.78
2022-07-28T22:38:55.594Z,101496.28
2022-07-28T22:41:40.973Z,101488.38
2022-07-28T22:44:28.238Z,101485.72
2022-07-28T22:47:13.865Z,101474.31
2022-07-28T22:49:59.052Z,101470.75
2022-07-28T22:52:44.455Z,101470.69
2022-07-28T22:58:32.675Z,101474.94
2022-07-28T23:01:18.023Z,101481.00
2022-07-28T23:04:04.675Z,101480.97
2022-07-28T23:06:50.541Z,101480.16
2022-07-28T23:09:36.232Z,101481.97
2022-07-28T23:12:21.714Z,101482.78
2022-07-28T23:15:07.767Z,101472.22
2022-07-28T23:17:53.496Z,101471.22
2022-07-28T23:20:40.140Z,101479.91
2022-07-28T23:23:25.771Z,101471.19
2022-07-28T23:26:11.421Z,101474.66
2022-07-28T23:28:57.182Z,101472.00
2022-07-28T23:31:42.729Z,101471.06
2022-07-28T23:34:28.240Z,101471.84
2022-07-28T23:37:13.937Z,101481.41
2022-07-28T23:39:59.496Z,101477.88
2022-07-28T23:42:45.014Z,101476.19
2022-07-28T23:45:30.372Z,101473.59
2022-07-28T23:48:15.777Z,101482.28
2022-07-28T23:51:01.548Z,101477.00
2022-07-28T23:53:46.970Z,101476.94
2022-07-28T23:56:32.230Z,101470.72
2022-07-28T23:59:17.787Z,101476.81
